sensor_id;sensor_type;location;lat;lon;timestamp;pressure;altitude;pressure_sealevel;temperature;humidity
63493;BME280;49638;47.526;10.028;2023-04-08T00:01:11;91749.06;;;3.76;83.79
63493;BME280;49638;47.526;10.028;2023-04-08T00:04:11;91759.53;;;3.83;83.76
63493;BME280;49638;47.526;10.028;2023-04-08T00:07:13;91745.66;;;3.76;83.46
63493;BME280;49638;47.526;10.028;2023-04-08T00:10:13;91743.66;;;3.78;83.64
63493;BME280;49638;47.526;10.028;2023-04-08T00:13:14;91752.91;;;3.81;83.95
63493;BME280;49638;47.526;10.028;2023-04-08T00:16:14;91754.50;;;3.82;84.24
63493;BME280;49638;47.526;10.028;2023-04-08T00:19:15;91754.09;;;3.85;84.02
63493;BME280;49638;47.526;10.028;2023-04-08T00:22:15;91750.06;;;3.82;84.32
63493;BME280;49638;47.526;10.028;2023-04-08T00:25:15;91754.50;;;3.88;84.25
63493;BME280;49638;47.526;10.028;2023-04-08T00:28:16;91750.47;;;3.92;84.21
63493;BME280;49638;47.526;10.028;2023-04-08T00:31:16;91751.28;;;3.93;84.25
63493;BME280;49638;47.526;10.028;2023-04-08T00:34:16;91747.66;;;3.87;84.24
63493;BME280;49638;47.526;10.028;2023-04-08T00:37:16;91751.91;;;3.88;84.16
63493;BME280;49638;47.526;10.028;2023-04-08T00:40:17;91749.47;;;3.87;84.31
63493;BME280;49638;47.526;10.028;2023-04-08T00:43:17;91750.88;;;3.89;84.16
63493;BME280;49638;47.526;10.028;2023-04-08T00:46:20;91754.91;;;3.92;83.81
63493;BME280;49638;47.526;10.028;2023-04-08T00:49:21;91745.66;;;3.83;84.13
63493;BME280;49638;47.526;10.028;2023-04-08T00:52:21;91757.31;;;3.87;84.44
63493;BME280;49638;47.526;10.028;2023-04-08T00:55:21;91758.13;;;3.81;84.66
63493;BME280;49638;47.526;10.028;2023-04-08T00:58:22;91752.06;;;3.80;84.65
63493;BME280;49638;47.526;10.028;2023-04-08T01:08:04;91745.47;;;3.77;84.60
63493;BME280;49638;47.526;10.028;2023-04-08T01:11:09;91750.88;;;3.76;84.90
63493;BME280;49638;47.526;10.028;2023-04-08T01:14:16;91749.28;;;3.75;85.33
63493;BME280;49638;47.526;10.028;2023-04-08T01:17:18;91743.84;;;3.76;84.78
63493;BME280;49638;47.526;10.028;2023-04-08T01:20:19;91744.22;;;3.80;84.64
63493;BME280;49638;47.526;10.028;2023-04-08T01:26:48;91728.38;;;3.68;84.78
63493;BME280;49638;47.526;10.028;2023-04-08T01:29:49;91739.00;;;3.73;84.71
63493;BME280;49638;47.526;10.028;2023-04-08T01:32:53;91732.78;;;3.74;85.37
63493;BME280;49638;47.526;10.028;2023-04-08T01:35:55;91737.63;;;3.77;84.86
63493;BME280;49638;47.526;10.028;2023-04-08T01:38:59;91743.03;;;3.83;85.03
63493;BME280;49638;47.526;10.028;2023-04-08T01:42:01;91740.25;;;3.84;85.02
63493;BME280;49638;47.526;10.028;2023-04-08T01:45:02;91726.56;;;3.75;85.13
63493;BME280;49638;47.526;10.028;2023-04-08T01:48:04;91740.81;;;3.86;85.44
63493;BME280;49638;47.526;10.028;2023-04-08T01:51:06;91746.25;;;3.91;85.04
63493;BME280;49638;47.526;10.028;2023-04-08T01:54:07;91746.66;;;3.95;85.03
63493;BME280;49638;47.526;10.028;2023-04-08T01:57:11;91741.03;;;3.98;84.68
63493;BME280;49638;47.526;10.028;2023-04-08T02:00:15;91749.06;;;3.96;84.56
63493;BME280;49638;47.526;10.028;2023-04-08T02:03:17;91743.44;;;3.93;84.73
63493;BME280;49638;47.526;10.028;2023-04-08T02:06:18;91736.78;;;3.90;85.02
63493;BME280;49638;47.526;10.028;2023-04-08T02:09:19;91739.63;;;3.89;85.40
63493;BME280;49638;47.526;10.028;2023-04-08T02:12:19;91739.81;;;3.87;85.31
63493;BME280;49638;47.526;10.028;2023-04-08T02:15:20;91740.22;;;3.91;85.17
63493;BME280;49638;47.526;10.028;2023-04-08T02:18:26;91740.41;;;3.96;86.13
63493;BME280;49638;47.526;10.028;2023-04-08T02:21:43;91743.66;;;3.98;87.10
63493;BME280;49638;47.526;10.028;2023-04-08T02:24:45;91722.72;;;3.85;85.21
63493;BME280;49638;47.526;10.028;2023-04-08T02:27:46;91745.66;;;3.96;85.21
63493;BME280;49638;47.526;10.028;2023-04-08T02:30:50;91732.78;;;3.88;85.37
63493;BME280;49638;47.526;10.028;2023-04-08T02:33:51;91746.84;;;3.93;85.46
63493;BME280;49638;47.526;10.028;2023-04-08T02:36:52;91750.25;;;3.94;84.98
63493;BME280;49638;47.526;10.028;2023-04-08T02:39:53;91747.25;;;3.90;85.20
63493;BME280;49638;47.526;10.028;2023-04-08T02:42:54;91729.56;;;3.79;84.93
63493;BME280;49638;47.526;10.028;2023-04-08T02:45:54;91756.50;;;3.86;85.32
63493;BME280;49638;47.526;10.028;2023-04-08T02:48:55;91749.88;;;3.84;85.46
63493;BME280;49638;47.526;10.028;2023-04-08T02:51:55;91744.44;;;3.78;85.68
63493;BME280;49638;47.526;10.028;2023-04-08T02:54:55;91747.88;;;3.72;86.16
63493;BME280;49638;47.526;10.028;2023-04-08T02:57:55;91744.66;;;3.70;86.34
63493;BME280;49638;47.526;10.028;2023-04-08T03:00:56;91748.25;;;3.63;86.51
63493;BME280;49638;47.526;10.028;2023-04-08T03:03:56;91734.78;;;3.52;86.69
63493;BME280;49638;47.526;10.028;2023-04-08T03:06:56;91742.03;;;3.57;86.76
63493;BME280;49638;47.526;10.028;2023-04-08T03:09:56;91739.22;;;3.59;86.70
63493;BME280;49638;47.526;10.028;2023-04-08T03:12:57;91740.63;;;3.61;86.58
63493;BME280;49638;47.526;10.028;2023-04-08T03:15:57;91749.88;;;3.70;86.34
63493;BME280;49638;47.526;10.028;2023-04-08T03:18:57;91744.66;;;3.64;86.55
63493;BME280;49638;47.526;10.028;2023-04-08T03:21:58;91739.41;;;3.50;86.81
63493;BME280;49638;47.526;10.028;2023-04-08T03:24:58;91745.25;;;3.59;86.88
63493;BME280;49638;47.526;10.028;2023-04-08T03:27:58;91746.88;;;3.60;86.71
63493;BME280;49638;47.526;10.028;2023-04-08T03:30:59;91750.88;;;3.56;86.79
63493;BME280;49638;47.526;10.028;2023-04-08T03:34:00;91746.47;;;3.50;86.87
63493;BME280;49638;47.526;10.028;2023-04-08T03:37:00;91748.06;;;3.51;87.00
63493;BME280;49638;47.526;10.028;2023-04-08T03:40:02;91750.69;;;3.51;86.79
63493;BME280;49638;47.526;10.028;2023-04-08T03:43:02;91755.28;;;3.49;86.63
63493;BME280;49638;47.526;10.028;2023-04-08T03:46:04;91740.22;;;3.38;86.76
63493;BME280;49638;47.526;10.028;2023-04-08T03:49:05;91750.44;;;3.46;87.02
63493;BME280;49638;47.526;10.028;2023-04-08T03:52:06;91753.69;;;3.48;86.90
63493;BME280;49638;47.526;10.028;2023-04-08T03:55:06;91761.31;;;3.49;86.61
63493;BME280;49638;47.526;10.028;2023-04-08T03:58:07;91753.47;;;3.49;86.75
63493;BME280;49638;47.526;10.028;2023-04-08T04:01:07;91759.31;;;3.51;86.57
63493;BME280;49638;47.526;10.028;2023-04-08T04:04:07;91735.59;;;3.40;86.83
63493;BME280;49638;47.526;10.028;2023-04-08T04:07:08;91758.13;;;3.54;86.89
63493;BME280;49638;47.526;10.028;2023-04-08T04:10:08;91757.72;;;3.57;86.51
63493;BME280;49638;47.526;10.028;2023-04-08T04:13:09;91763.94;;;3.56;86.45
63493;BME280;49638;47.526;10.028;2023-04-08T04:16:11;91762.94;;;3.57;86.53
63493;BME280;49638;47.526;10.028;2023-04-08T04:19:11;91760.91;;;3.52;86.76
63493;BME280;49638;47.526;10.028;2023-04-08T04:22:12;91763.94;;;3.56;86.72
63493;BME280;49638;47.526;10.028;2023-04-08T04:25:12;91768.56;;;3.54;87.04
63493;BME280;49638;47.526;10.028;2023-04-08T04:28:12;91763.75;;;3.51;87.25
63493;BME280;49638;47.526;10.028;2023-04-08T04:31:20;91748.22;;;3.43;88.02
63493;BME280;49638;47.526;10.028;2023-04-08T04:34:20;91774.19;;;3.51;87.54
63493;BME280;49638;47.526;10.028;2023-04-08T04:37:21;91772.59;;;3.50;87.20
63493;BME280;49638;47.526;10.028;2023-04-08T04:40:21;91772.16;;;3.46;87.17
63493;BME280;49638;47.526;10.028;2023-04-08T04:43:21;91772.16;;;3.46;87.01
63493;BME280;49638;47.526;10.028;2023-04-08T04:46:22;91776.59;;;3.46;86.69
63493;BME280;49638;47.526;10.028;2023-04-08T04:49:22;91773.78;;;3.41;86.38
63493;BME280;49638;47.526;10.028;2023-04-08T04:52:22;91779.19;;;3.39;86.59
63493;BME280;49638;47.526;10.028;2023-04-08T04:55:22;91785.81;;;3.35;86.58
63493;BME280;49638;47.526;10.028;2023-04-08T04:58:23;91789.22;;;3.36;86.43
63493;BME280;49638;47.526;10.028;2023-04-08T05:01:23;91792.03;;;3.34;86.85
63493;BME280;49638;47.526;10.028;2023-04-08T05:04:24;91782.75;;;3.18;86.97
63493;BME280;49638;47.526;10.028;2023-04-08T05:07:24;91790.59;;;3.18;87.14
63493;BME280;49638;47.526;10.028;2023-04-08T05:10:25;91795.41;;;3.21;87.09
63493;BME280;49638;47.526;10.028;2023-04-08T05:13:25;91800.84;;;3.20;86.83
63493;BME280;49638;47.526;10.028;2023-04-08T05:16:25;91806.06;;;3.20;86.72
63493;BME280;49638;47.526;10.028;2023-04-08T05:19:26;91801.84;;;3.19;86.72
63493;BME280;49638;47.526;10.028;2023-04-08T05:22:26;91800.03;;;3.19;86.52
63493;BME280;49638;47.526;10.028;2023-04-08T05:25:26;91789.75;;;3.11;86.28
63493;BME280;49638;47.526;10.028;2023-04-08T05:28:26;91797.59;;;3.11;86.40
63493;BME280;49638;47.526;10.028;2023-04-08T05:31:27;91811.31;;;3.20;86.67
63493;BME280;49638;47.526;10.028;2023-04-08T05:34:30;91814.72;;;3.20;86.75
63493;BME280;49638;47.526;10.028;2023-04-08T05:37:30;91818.75;;;3.23;86.69
63493;BME280;49638;47.526;10.028;2023-04-08T05:40:30;91807.06;;;3.19;86.68
63493;BME280;49638;47.526;10.028;2023-04-08T05:43:34;91809.50;;;3.20;86.83
63493;BME280;49638;47.526;10.028;2023-04-08T05:46:35;91806.66;;;3.15;86.85
63493;BME280;49638;47.526;10.028;2023-04-08T05:49:35;91816.69;;;3.18;86.87
63493;BME280;49638;47.526;10.028;2023-04-08T05:52:35;91817.69;;;3.11;87.32
63493;BME280;49638;47.526;10.028;2023-04-08T05:55:35;91828.38;;;3.22;87.00
63493;BME280;49638;47.526;10.028;2023-04-08T05:58:36;91831.38;;;3.26;86.88
63493;BME280;49638;47.526;10.028;2023-04-08T06:01:36;91826.13;;;3.19;86.91
63493;BME280;49638;47.526;10.028;2023-04-08T06:04:36;91824.75;;;3.17;86.80
63493;BME280;49638;47.526;10.028;2023-04-08T06:07:36;91840.41;;;3.17;87.09
63493;BME280;49638;47.526;10.028;2023-04-08T06:10:37;91839.19;;;3.19;87.20
63493;BME280;49638;47.526;10.028;2023-04-08T06:13:37;91843.22;;;3.15;87.20
63493;BME280;49638;47.526;10.028;2023-04-08T06:16:38;91842.00;;;3.11;87.19
63493;BME280;49638;47.526;10.028;2023-04-08T06:19:38;91841.94;;;2.98;87.40
63493;BME280;49638;47.526;10.028;2023-04-08T06:22:38;91842.69;;;2.92;87.65
63493;BME280;49638;47.526;10.028;2023-04-08T06:25:38;91849.56;;;2.93;87.58
63493;BME280;49638;47.526;10.028;2023-04-08T06:28:39;91846.16;;;2.92;87.56
63493;BME280;49638;47.526;10.028;2023-04-08T06:31:39;91843.09;;;2.89;87.33
63493;BME280;49638;47.526;10.028;2023-04-08T06:34:40;91836.22;;;2.81;87.23
63493;BME280;49638;47.526;10.028;2023-04-08T06:37:41;91832.81;;;2.80;87.39
63493;BME280;49638;47.526;10.028;2023-04-08T06:40:41;91848.75;;;2.92;87.33
63493;BME280;49638;47.526;10.028;2023-04-08T06:43:41;91846.75;;;2.94;87.25
63493;BME280;49638;47.526;10.028;2023-04-08T06:46:41;91847.91;;;2.92;87.50
63493;BME280;49638;47.526;10.028;2023-04-08T06:49:42;91852.75;;;2.95;87.60
63493;BME280;49638;47.526;10.028;2023-04-08T06:52:42;91849.16;;;2.96;87.82
63493;BME280;49638;47.526;10.028;2023-04-08T06:55:42;91852.19;;;2.99;87.77
63493;BME280;49638;47.526;10.028;2023-04-08T06:58:43;91842.13;;;2.96;87.79
63493;BME280;49638;47.526;10.028;2023-04-08T07:01:43;91848.78;;;3.05;87.82
63493;BME280;49638;47.526;10.028;2023-04-08T07:04:43;91841.97;;;3.04;87.83
63493;BME280;49638;47.526;10.028;2023-04-08T07:07:43;91848.63;;;3.14;87.67
63493;BME280;49638;47.526;10.028;2023-04-08T07:10:44;91849.81;;;3.11;87.40
63493;BME280;49638;47.526;10.028;2023-04-08T07:13:44;91848.25;;;3.17;87.63
63493;BME280;49638;47.526;10.028;2023-04-08T07:16:44;91849.03;;;3.11;87.72
63493;BME280;49638;47.526;10.028;2023-04-08T07:19:44;91852.88;;;3.21;87.97
63493;BME280;49638;47.526;10.028;2023-04-08T07:22:45;91857.72;;;3.24;87.99
63493;BME280;49638;47.526;10.028;2023-04-08T07:25:46;91840.22;;;3.18;87.73
63493;BME280;49638;47.526;10.028;2023-04-08T07:28:46;91829.56;;;3.13;87.42
63493;BME280;49638;47.526;10.028;2023-04-08T07:31:47;91853.69;;;3.28;87.50
63493;BME280;49638;47.526;10.028;2023-04-08T07:34:47;91873.19;;;3.32;87.42
63493;BME280;49638;47.526;10.028;2023-04-08T07:37:47;91869.38;;;3.28;87.53
63493;BME280;49638;47.526;10.028;2023-04-08T07:40:48;91869.59;;;3.27;87.87
63493;BME280;49638;47.526;10.028;2023-04-08T07:43:48;91872.19;;;3.27;88.46
63493;BME280;49638;47.526;10.028;2023-04-08T07:46:48;91853.28;;;3.25;88.18
63493;BME280;49638;47.526;10.028;2023-04-08T07:49:50;91870.03;;;3.44;87.74
63493;BME280;49638;47.526;10.028;2023-04-08T07:52:51;91871.88;;;3.50;87.94
63493;BME280;49638;47.526;10.028;2023-04-08T07:55:52;91875.50;;;3.55;87.52
63493;BME280;49638;47.526;10.028;2023-04-08T07:58:52;91875.72;;;3.61;86.92
63493;BME280;49638;47.526;10.028;2023-04-08T08:01:53;91874.31;;;3.58;86.67
63493;BME280;49638;47.526;10.028;2023-04-08T08:04:54;91876.69;;;3.53;87.24
63493;BME280;49638;47.526;10.028;2023-04-08T08:07:54;91874.50;;;3.50;87.50
63493;BME280;49638;47.526;10.028;2023-04-08T08:10:54;91881.72;;;3.48;87.98
63493;BME280;49638;47.526;10.028;2023-04-08T08:13:55;91884.72;;;3.51;88.14
63493;BME280;49638;47.526;10.028;2023-04-08T08:16:56;91886.75;;;3.56;87.68
63493;BME280;49638;47.526;10.028;2023-04-08T08:19:56;91872.47;;;3.52;87.61
63493;BME280;49638;47.526;10.028;2023-04-08T08:22:56;91880.53;;;3.57;87.56
63493;BME280;49638;47.526;10.028;2023-04-08T08:26:01;91884.94;;;3.56;87.90
63493;BME280;49638;47.526;10.028;2023-04-08T08:29:02;91880.72;;;3.55;88.29
63493;BME280;49638;47.526;10.028;2023-04-08T08:32:03;91881.91;;;3.53;88.62
63493;BME280;49638;47.526;10.028;2023-04-08T08:35:04;91865.44;;;3.52;89.24
63493;BME280;49638;47.526;10.028;2023-04-08T08:38:04;91882.97;;;3.72;89.26
63493;BME280;49638;47.526;10.028;2023-04-08T08:41:04;91889.03;;;3.79;88.69
63493;BME280;49638;47.526;10.028;2023-04-08T08:44:05;91898.09;;;3.90;87.79
63493;BME280;49638;47.526;10.028;2023-04-08T08:47:06;91899.31;;;3.94;87.56
63493;BME280;49638;47.526;10.028;2023-04-08T08:50:07;91886.66;;;3.91;87.24
63493;BME280;49638;47.526;10.028;2023-04-08T08:53:07;91904.34;;;4.02;86.92
63493;BME280;49638;47.526;10.028;2023-04-08T08:56:08;91905.16;;;4.02;87.32
63493;BME280;49638;47.526;10.028;2023-04-08T08:59:09;91910.41;;;4.02;87.68
63493;BME280;49638;47.526;10.028;2023-04-08T09:02:26;91911.19;;;4.03;88.99
63493;BME280;49638;47.526;10.028;2023-04-08T09:05:26;91902.97;;;4.13;87.46
63493;BME280;49638;47.526;10.028;2023-04-08T09:08:34;91903.19;;;4.18;88.20
63493;BME280;49638;47.526;10.028;2023-04-08T09:11:37;91892.50;;;4.19;87.49
63493;BME280;49638;47.526;10.028;2023-04-08T09:14:39;91905.38;;;4.27;87.06
63493;BME280;49638;47.526;10.028;2023-04-08T09:17:39;91912.03;;;4.37;87.44
63493;BME280;49638;47.526;10.028;2023-04-08T09:20:52;91910.84;;;4.53;88.23
63493;BME280;49638;47.526;10.028;2023-04-08T09:23:52;91905.78;;;4.64;87.24
63493;BME280;49638;47.526;10.028;2023-04-08T09:26:53;91905.59;;;4.72;86.50
63493;BME280;49638;47.526;10.028;2023-04-08T09:30:12;91902.16;;;4.79;87.80
63493;BME280;49638;47.526;10.028;2023-04-08T09:33:12;91907.59;;;4.90;86.59
63493;BME280;49638;47.526;10.028;2023-04-08T09:36:13;91907.75;;;5.02;86.30
63493;BME280;49638;47.526;10.028;2023-04-08T09:39:14;91915.00;;;5.07;85.98
63493;BME280;49638;47.526;10.028;2023-04-08T09:42:15;91909.78;;;5.07;86.58
63493;BME280;49638;47.526;10.028;2023-04-08T09:45:18;91898.06;;;5.09;86.89
63493;BME280;49638;47.526;10.028;2023-04-08T09:48:23;91915.34;;;5.30;86.68
63493;BME280;49638;47.526;10.028;2023-04-08T09:51:31;91913.72;;;5.36;87.06
63493;BME280;49638;47.526;10.028;2023-04-08T09:54:53;91916.91;;;5.44;86.89
63493;BME280;49638;47.526;10.028;2023-04-08T09:58:07;91895.16;;;5.44;87.41
63493;BME280;49638;47.526;10.028;2023-04-08T10:01:13;91901.75;;;5.53;87.00
63493;BME280;49638;47.526;10.028;2023-04-08T10:04:14;91898.72;;;5.56;86.65
63493;BME280;49638;47.526;10.028;2023-04-08T10:07:20;91906.34;;;5.71;85.68
63493;BME280;49638;47.526;10.028;2023-04-08T10:10:21;91915.81;;;5.65;85.56
63493;BME280;49638;47.526;10.028;2023-04-08T10:13:22;91912.38;;;5.72;85.67
63493;BME280;49638;47.526;10.028;2023-04-08T10:16:24;91913.94;;;5.79;85.49
63493;BME280;49638;47.526;10.028;2023-04-08T10:19:37;91908.66;;;5.86;86.82
63493;BME280;49638;47.526;10.028;2023-04-08T10:22:47;91904.94;;;6.07;85.92
63493;BME280;49638;47.526;10.028;2023-04-08T10:25:48;91905.50;;;6.15;85.19
63493;BME280;49638;47.526;10.028;2023-04-08T10:28:48;91905.84;;;6.26;84.99
63493;BME280;49638;47.526;10.028;2023-04-08T10:31:49;91905.16;;;6.37;84.63
63493;BME280;49638;47.526;10.028;2023-04-08T10:34:51;91908.13;;;6.47;84.36
63493;BME280;49638;47.526;10.028;2023-04-08T10:37:52;91903.78;;;6.59;84.47
63493;BME280;49638;47.526;10.028;2023-04-08T10:40:53;91900.69;;;6.69;84.46
63493;BME280;49638;47.526;10.028;2023-04-08T10:43:54;91904.19;;;6.81;84.27
63493;BME280;49638;47.526;10.028;2023-04-08T10:46:54;91909.19;;;6.90;84.27
63493;BME280;49638;47.526;10.028;2023-04-08T10:49:54;91874.44;;;6.69;84.29
63493;BME280;49638;47.526;10.028;2023-04-08T10:52:55;91904.81;;;6.83;83.11
63493;BME280;49638;47.526;10.028;2023-04-08T10:56:05;91905.00;;;6.82;81.98
63493;BME280;49638;47.526;10.028;2023-04-08T10:59:06;91905.66;;;6.77;82.23
63493;BME280;49638;47.526;10.028;2023-04-08T11:02:12;91902.34;;;6.63;82.28
63493;BME280;49638;47.526;10.028;2023-04-08T11:05:12;91904.78;;;6.58;82.69
63493;BME280;49638;47.526;10.028;2023-04-08T11:08:12;91896.63;;;6.42;82.69
63493;BME280;49638;47.526;10.028;2023-04-08T11:11:13;91893.25;;;6.34;82.36
63493;BME280;49638;47.526;10.028;2023-04-08T11:14:15;91917.91;;;6.33;82.02
63493;BME280;49638;47.526;10.028;2023-04-08T11:17:18;91900.41;;;6.21;82.31
63493;BME280;49638;47.526;10.028;2023-04-08T11:20:19;91915.38;;;6.20;82.21
63493;BME280;49638;47.526;10.028;2023-04-08T11:23:20;91917.00;;;6.14;82.61
63493;BME280;49638;47.526;10.028;2023-04-08T11:26:22;91895.09;;;6.02;82.91
63493;BME280;49638;47.526;10.028;2023-04-08T11:29:22;91908.00;;;6.04;83.22
63493;BME280;49638;47.526;10.028;2023-04-08T11:32:23;91913.03;;;6.05;83.35
63493;BME280;49638;47.526;10.028;2023-04-08T11:35:27;91910.41;;;6.05;83.82
63493;BME280;49638;47.526;10.028;2023-04-08T11:38:28;91909.25;;;6.01;83.17
63493;BME280;49638;47.526;10.028;2023-04-08T11:41:38;91905.41;;;5.90;84.47
63493;BME280;49638;47.526;10.028;2023-04-08T11:44:39;91896.97;;;5.95;83.39
63493;BME280;49638;47.526;10.028;2023-04-08T11:47:39;91906.03;;;5.92;83.10
63493;BME280;49638;47.526;10.028;2023-04-08T11:50:41;91909.69;;;5.85;83.21
63493;BME280;49638;47.526;10.028;2023-04-08T11:53:42;91917.44;;;5.66;84.10
63493;BME280;49638;47.526;10.028;2023-04-08T11:56:46;91919.94;;;5.48;84.49
63493;BME280;49638;47.526;10.028;2023-04-08T11:59:47;91925.38;;;5.46;84.88
63493;BME280;49638;47.526;10.028;2023-04-08T12:02:49;91921.38;;;5.44;84.48
63493;BME280;49638;47.526;10.028;2023-04-08T12:05:50;91916.31;;;5.42;84.87
63493;BME280;49638;47.526;10.028;2023-04-08T12:08:50;91929.19;;;5.51;85.06
63493;BME280;49638;47.526;10.028;2023-04-08T12:11:50;91922.72;;;5.53;84.90
63493;BME280;49638;47.526;10.028;2023-04-08T12:14:51;91923.75;;;5.52;85.16
63493;BME280;49638;47.526;10.028;2023-04-08T12:17:51;91923.56;;;5.47;85.31
63493;BME280;49638;47.526;10.028;2023-04-08T12:20:51;91921.34;;;5.51;85.11
63493;BME280;49638;47.526;10.028;2023-04-08T12:23:52;91911.25;;;5.48;84.84
63493;BME280;49638;47.526;10.028;2023-04-08T12:26:52;91926.13;;;5.60;84.93
63493;BME280;49638;47.526;10.028;2023-04-08T12:29:52;91908.78;;;5.59;85.31
63493;BME280;49638;47.526;10.028;2023-04-08T12:32:53;91921.84;;;5.73;85.01
63493;BME280;49638;47.526;10.028;2023-04-08T12:35:54;91913.38;;;5.70;85.13
63493;BME280;49638;47.526;10.028;2023-04-08T12:38:54;91911.53;;;5.78;85.46
63493;BME280;49638;47.526;10.028;2023-04-08T12:41:55;91913.91;;;5.86;84.83
63493;BME280;49638;47.526;10.028;2023-04-08T12:44:56;91919.97;;;5.93;84.96
63493;BME280;49638;47.526;10.028;2023-04-08T12:47:56;91921.97;;;5.91;84.75
63493;BME280;49638;47.526;10.028;2023-04-08T12:50:57;91920.75;;;5.87;84.51
63493;BME280;49638;47.526;10.028;2023-04-08T12:53:58;91918.34;;;5.92;84.95
63493;BME280;49638;47.526;10.028;2023-04-08T12:56:59;91915.50;;;5.93;84.88
63493;BME280;49638;47.526;10.028;2023-04-08T13:00:00;91913.09;;;5.92;84.76
63493;BME280;49638;47.526;10.028;2023-04-08T13:03:01;91900.97;;;5.98;84.71
63493;BME280;49638;47.526;10.028;2023-04-08T13:06:01;91912.03;;;6.06;84.95
63493;BME280;49638;47.526;10.028;2023-04-08T13:09:01;91919.88;;;6.06;85.30
63493;BME280;49638;47.526;10.028;2023-04-08T13:12:02;91904.16;;;6.06;84.47
63493;BME280;49638;47.526;10.028;2023-04-08T13:15:03;91909.34;;;6.13;84.40
63493;BME280;49638;47.526;10.028;2023-04-08T13:18:04;91918.69;;;6.09;84.38
63493;BME280;49638;47.526;10.028;2023-04-08T13:21:04;91913.66;;;6.01;84.64
63493;BME280;49638;47.526;10.028;2023-04-08T13:24:04;91917.50;;;6.05;84.64
63493;BME280;49638;47.526;10.028;2023-04-08T13:27:05;91910.66;;;5.97;83.84
63493;BME280;49638;47.526;10.028;2023-04-08T13:30:05;91913.28;;;5.97;83.34
63493;BME280;49638;47.526;10.028;2023-04-08T13:33:06;91923.78;;;5.90;83.00
63493;BME280;49638;47.526;10.028;2023-04-08T13:36:06;91924.78;;;5.89;83.07
63493;BME280;49638;47.526;10.028;2023-04-08T13:39:06;91930.84;;;5.90;83.17
63493;BME280;49638;47.526;10.028;2023-04-08T13:42:07;91921.78;;;5.86;82.70
63493;BME280;49638;47.526;10.028;2023-04-08T13:45:07;91913.16;;;5.79;82.18
63493;BME280;49638;47.526;10.028;2023-04-08T13:48:08;91918.22;;;5.67;83.10
63493;BME280;49638;47.526;10.028;2023-04-08T13:51:08;91924.88;;;5.69;83.54
63493;BME280;49638;47.526;10.028;2023-04-08T13:54:09;91927.91;;;5.66;83.99
63493;BME280;49638;47.526;10.028;2023-04-08T13:57:09;91915.88;;;5.52;84.70
63493;BME280;49638;47.526;10.028;2023-04-08T14:00:10;91928.16;;;5.58;84.57
63493;BME280;49638;47.526;10.028;2023-04-08T14:03:10;91930.53;;;5.66;84.14
63493;BME280;49638;47.526;10.028;2023-04-08T14:06:11;91929.34;;;5.62;84.14
63493;BME280;49638;47.526;10.028;2023-04-08T14:09:11;91945.44;;;5.73;84.32
63493;BME280;49638;47.526;10.028;2023-04-08T14:12:11;91938.75;;;5.77;84.09
63493;BME280;49638;47.526;10.028;2023-04-08T14:15:12;91934.94;;;5.73;83.93
63493;BME280;49638;47.526;10.028;2023-04-08T14:18:12;91948.25;;;5.78;84.16
63493;BME280;49638;47.526;10.028;2023-04-08T14:21:13;91937.41;;;5.67;84.26
63493;BME280;49638;47.526;10.028;2023-04-08T14:24:14;91952.69;;;5.70;84.19
63493;BME280;49638;47.526;10.028;2023-04-08T14:27:15;91944.44;;;5.67;83.79
63493;BME280;49638;47.526;10.028;2023-04-08T14:30:15;91947.91;;;5.67;83.49
63493;BME280;49638;47.526;10.028;2023-04-08T14:33:15;91954.53;;;5.63;83.56
63493;BME280;49638;47.526;10.028;2023-04-08T14:36:16;91949.94;;;5.59;83.65
63493;BME280;49638;47.526;10.028;2023-04-08T14:39:16;91954.19;;;5.53;83.72
63493;BME280;49638;47.526;10.028;2023-04-08T14:42:16;91953.81;;;5.43;84.41
63493;BME280;49638;47.526;10.028;2023-04-08T14:45:17;91949.44;;;5.30;84.74
63493;BME280;49638;47.526;10.028;2023-04-08T14:48:18;91944.81;;;5.12;84.82
63493;BME280;49638;47.526;10.028;2023-04-08T14:51:18;91950.44;;;5.09;85.41
63493;BME280;49638;47.526;10.028;2023-04-08T14:54:19;91953.28;;;5.01;85.77
63493;BME280;49638;47.526;10.028;2023-04-08T14:57:19;91947.66;;;4.91;86.29
63493;BME280;49638;47.526;10.028;2023-04-08T15:00:19;91950.50;;;4.89;86.87
63493;BME280;49638;47.526;10.028;2023-04-08T15:03:20;91950.91;;;4.86;86.47
63493;BME280;49638;47.526;10.028;2023-04-08T15:06:21;91943.44;;;4.77;86.33
63493;BME280;49638;47.526;10.028;2023-04-08T15:09:22;91951.31;;;4.83;87.09
63493;BME280;49638;47.526;10.028;2023-04-08T15:12:22;91958.13;;;4.91;87.43
63493;BME280;49638;47.526;10.028;2023-04-08T15:15:23;91952.91;;;4.97;87.48
63493;BME280;49638;47.526;10.028;2023-04-08T15:18:23;91950.06;;;5.06;87.29
63493;BME280;49638;47.526;10.028;2023-04-08T15:21:24;91941.00;;;5.08;87.38
63493;BME280;49638;47.526;10.028;2023-04-08T15:24:25;91941.41;;;5.05;87.37
63493;BME280;49638;47.526;10.028;2023-04-08T15:27:25;91947.63;;;5.17;87.36
63493;BME280;49638;47.526;10.028;2023-04-08T15:30:26;91938.16;;;5.16;87.20
63493;BME280;49638;47.526;10.028;2023-04-08T15:33:26;91943.81;;;5.13;87.04
63493;BME280;49638;47.526;10.028;2023-04-08T15:36:28;91939.97;;;5.09;87.29
63493;BME280;49638;47.526;10.028;2023-04-08T15:39:28;91944.22;;;5.17;87.39
63493;BME280;49638;47.526;10.028;2023-04-08T15:42:28;91950.25;;;5.24;87.53
63493;BME280;49638;47.526;10.028;2023-04-08T15:45:29;91934.72;;;5.16;87.31
63493;BME280;49638;47.526;10.028;2023-04-08T15:48:29;91948.22;;;5.19;87.37
63493;BME280;49638;47.526;10.028;2023-04-08T15:51:29;91937.56;;;5.14;87.27
63493;BME280;49638;47.526;10.028;2023-04-08T15:54:34;91946.03;;;5.16;87.39
63493;BME280;49638;47.526;10.028;2023-04-08T15:57:34;91938.38;;;5.08;87.16
63493;BME280;49638;47.526;10.028;2023-04-08T16:00:35;91943.19;;;5.18;87.01
63493;BME280;49638;47.526;10.028;2023-04-08T16:03:36;91951.63;;;5.33;86.93
63493;BME280;49638;47.526;10.028;2023-04-08T16:06:37;91931.28;;;5.15;86.61
63493;BME280;49638;47.526;10.028;2023-04-08T16:09:37;91962.13;;;5.27;86.41